Time;durP1;ratioP1;P1;durP2;ratioP2;P2;SDS_P1;SDS_P2;PMS_P1;PMS_P2;Temp;Humidity;BMP_temperature;BMP_pressure;BME280_temperature;BME280_humidity;BME280_pressure;Samples;Min_cycle;Max_cycle;Signal;HPM_P1;HPM_P2
2023/08/13 00:01:21;;;;;;;1999.90;999.90;;;18.50;84.20;;;;;;5089920;28;20040;-72
2023/08/13 00:03:47;;;;;;;1999.90;999.90;;;18.40;83.50;;;;;;5090851;28;20043;-72
2023/08/13 00:06:13;;;;;;;1999.90;999.90;;;18.30;83.90;;;;;;5087906;28;20039;-72
2023/08/13 00:08:38;;;;;;;1999.90;999.90;;;18.20;83.90;;;;;;5089851;28;20038;-72
2023/08/13 00:11:11;;;;;;;1999.90;999.90;;;18.20;83.70;;;;;;5089135;28;20024;-73
2023/08/13 00:13:41;;;;;;;1999.90;999.90;;;18.20;85.00;;;;;;5090673;28;20496;-72
2023/08/13 00:16:07;;;;;;;1999.90;999.90;;;18.10;85.00;;;;;;5086003;28;20023;-72
2023/08/13 00:18:34;;;;;;;1999.90;999.90;;;18.10;85.50;;;;;;5088144;28;20032;-72
2023/08/13 00:21:00;;;;;;;1999.90;999.90;;;18.10;85.30;;;;;;5088574;28;20039;-72
2023/08/13 00:23:26;;;;;;;1999.90;999.90;;;18.20;85.10;;;;;;5088798;28;20024;-72
2023/08/13 00:25:52;;;;;;;1999.90;999.90;;;18.20;85.50;;;;;;5084379;28;20036;-72
2023/08/13 00:28:18;;;;;;;1999.90;999.90;;;18.10;85.90;;;;;;5089062;28;20024;-72
2023/08/13 00:30:44;;;;;;;1999.90;999.90;;;18.00;86.00;;;;;;5089825;28;20028;-72
2023/08/13 00:33:09;;;;;;;1999.90;999.90;;;17.90;86.20;;;;;;5089149;28;20052;-72
2023/08/13 00:35:35;;;;;;;1999.90;999.90;;;17.90;86.60;;;;;;5089303;28;20028;-72
2023/08/13 00:38:01;;;;;;;1999.90;999.90;;;17.80;86.50;;;;;;5087908;28;20078;-72
2023/08/13 00:40:27;;;;;;;1999.90;999.90;;;17.80;86.50;;;;;;5086885;28;20405;-72
2023/08/13 00:42:53;;;;;;;1999.90;999.90;;;17.70;85.90;;;;;;5089057;28;20085;-72
2023/08/13 00:45:20;;;;;;;1999.90;999.90;;;17.50;86.30;;;;;;5087383;28;20031;-72
2023/08/13 00:47:47;;;;;;;1999.90;999.90;;;17.60;88.10;;;;;;5087095;28;20144;-72
2023/08/13 00:50:13;;;;;;;1999.90;999.90;;;17.80;88.90;;;;;;5088163;28;20082;-72
2023/08/13 00:52:39;;;;;;;1999.90;999.90;;;17.70;88.40;;;;;;5088240;28;20064;-72
2023/08/13 00:55:05;;;;;;;1999.90;999.90;;;17.60;88.00;;;;;;5087197;28;20074;-72
2023/08/13 00:57:32;;;;;;;1999.90;999.90;;;17.50;88.50;;;;;;5088472;28;20107;-72
2023/08/13 00:59:58;;;;;;;1999.90;999.90;;;17.50;88.10;;;;;;5082329;28;20043;-71
2023/08/13 01:02:24;;;;;;;1999.90;999.90;;;17.50;88.90;;;;;;5086311;28;20646;-72
2023/08/13 01:04:50;;;;;;;1999.90;999.90;;;17.50;89.10;;;;;;5085818;28;20066;-72
2023/08/13 01:07:24;;;;;;;1999.90;999.90;;;17.50;89.30;;;;;;5088150;28;20023;-72
2023/08/13 01:10:09;;;;;;;1999.90;999.90;;;17.50;89.10;;;;;;5088342;28;20024;-72
2023/08/13 01:12:47;;;;;;;1999.90;999.90;;;17.50;88.70;;;;;;5086593;28;20028;-72
2023/08/13 01:15:20;;;;;;;1999.90;999.90;;;17.40;88.20;;;;;;5086525;28;20039;-72
2023/08/13 01:17:48;;;;;;;1999.90;999.90;;;17.40;87.10;;;;;;5086633;28;20035;-72
2023/08/13 01:20:15;;;;;;;1999.90;999.90;;;17.30;86.80;;;;;;5088218;28;20557;-72
2023/08/13 01:22:50;;;;;;;1999.90;999.90;;;17.10;87.00;;;;;;5088671;28;20043;-72
2023/08/13 01:25:17;;;;;;;1999.90;999.90;;;17.10;86.80;;;;;;5088944;28;20117;-72
2023/08/13 01:27:49;;;;;;;1999.90;999.90;;;17.10;87.00;;;;;;5086728;28;20055;-72
2023/08/13 01:30:39;;;;;;;1999.90;999.90;;;17.10;87.50;;;;;;5087216;28;20081;-72
2023/08/13 01:33:08;;;;;;;1999.90;999.90;;;17.10;87.90;;;;;;5087464;28;20032;-72
2023/08/13 01:35:35;;;;;;;1999.90;999.90;;;17.10;88.20;;;;;;5088209;28;20020;-72
2023/08/13 01:38:02;;;;;;;1999.90;999.90;;;16.80;87.80;;;;;;5087878;28;20024;-71
2023/08/13 01:40:28;;;;;;;1999.90;999.90;;;16.90;87.90;;;;;;5088482;28;20040;-71
2023/08/13 01:42:54;;;;;;;1999.90;999.90;;;16.90;88.70;;;;;;5086099;28;20505;-72
2023/08/13 01:45:20;;;;;;;1999.90;999.90;;;17.00;89.60;;;;;;5085324;28;20028;-72
2023/08/13 01:47:46;;;;;;;1999.90;999.90;;;16.80;89.40;;;;;;5085263;28;20095;-71
2023/08/13 01:50:13;;;;;;;1999.90;999.90;;;16.90;88.60;;;;;;5085580;28;20020;-72
2023/08/13 01:52:38;;;;;;;1999.90;999.90;;;16.80;88.40;;;;;;5087696;28;20109;-72
2023/08/13 01:55:05;;;;;;;1999.90;999.90;;;16.70;88.80;;;;;;5089588;28;20032;-72
2023/08/13 01:57:31;;;;;;;1999.90;999.90;;;16.70;89.20;;;;;;5086036;28;20452;-72
2023/08/13 01:59:57;;;;;;;1999.90;999.90;;;16.70;90.10;;;;;;5084283;28;20054;-72
2023/08/13 02:02:23;;;;;;;1999.90;999.90;;;16.70;90.30;;;;;;5085918;28;20144;-72
2023/08/13 02:04:48;;;;;;;1999.90;999.90;;;16.70;90.50;;;;;;5087842;28;20059;-72
2023/08/13 02:07:14;;;;;;;1999.90;999.90;;;16.70;90.50;;;;;;5087562;28;20032;-71
2023/08/13 02:09:40;;;;;;;1999.90;999.90;;;16.70;90.80;;;;;;5085140;28;20025;-72
2023/08/13 02:12:06;;;;;;;1999.90;999.90;;;16.80;91.10;;;;;;5085099;28;20103;-72
2023/08/13 02:14:31;;;;;;;1999.90;999.90;;;16.60;91.50;;;;;;5087047;28;20390;-72
2023/08/13 02:16:59;;;;;;;1999.90;999.90;;;16.80;91.20;;;;;;5086288;28;20021;-72
2023/08/13 02:19:25;;;;;;;1999.90;999.90;;;16.80;91.00;;;;;;5086738;28;20061;-72
2023/08/13 02:21:51;;;;;;;1999.90;999.90;;;16.90;91.00;;;;;;5085519;28;20039;-72
2023/08/13 02:24:16;;;;;;;1999.90;999.90;;;16.80;90.80;;;;;;5087915;28;20058;-72
2023/08/13 02:26:42;;;;;;;1999.90;999.90;;;16.70;90.80;;;;;;5087260;28;20137;-72
2023/08/13 02:29:08;;;;;;;1999.90;999.90;;;16.70;90.70;;;;;;5088434;28;20051;-72
2023/08/13 02:31:33;;;;;;;1999.90;999.90;;;16.80;90.80;;;;;;5086458;28;20024;-72
2023/08/13 02:33:59;;;;;;;1999.90;999.90;;;16.80;90.60;;;;;;5085418;28;20032;-72
2023/08/13 02:36:25;;;;;;;1999.90;999.90;;;16.80;90.60;;;;;;5088300;28;20039;-72
2023/08/13 02:38:50;;;;;;;1999.90;999.90;;;16.60;90.60;;;;;;5087284;28;20131;-72
2023/08/13 02:41:16;;;;;;;1999.90;999.90;;;16.60;90.50;;;;;;5087458;28;20482;-72
2023/08/13 02:43:54;;;;;;;1999.90;999.90;;;16.60;90.40;;;;;;5087352;28;20396;-72
2023/08/13 02:46:20;;;;;;;1999.90;999.90;;;16.50;90.20;;;;;;5084856;28;20035;-72
2023/08/13 02:48:46;;;;;;;1999.90;999.90;;;16.50;89.70;;;;;;5084725;28;20740;-72
2023/08/13 02:51:13;;;;;;;1999.90;999.90;;;16.40;90.00;;;;;;5085843;28;20016;-72
2023/08/13 02:53:40;;;;;;;1999.90;999.90;;;16.40;90.30;;;;;;5084503;28;20353;-72
2023/08/13 02:56:05;;;;;;;1999.90;999.90;;;16.60;90.50;;;;;;5087876;28;20043;-72
2023/08/13 02:58:31;;;;;;;1999.90;999.90;;;16.50;90.60;;;;;;5086253;28;20047;-72
2023/08/13 03:00:57;;;;;;;1999.90;999.90;;;16.50;90.60;;;;;;5083341;28;20662;-72
2023/08/13 03:03:22;;;;;;;1999.90;999.90;;;16.60;91.00;;;;;;5087490;28;20509;-72
2023/08/13 03:05:48;;;;;;;1999.90;999.90;;;16.60;90.90;;;;;;5086687;28;20082;-72
2023/08/13 03:08:14;;;;;;;1999.90;999.90;;;16.40;90.50;;;;;;5087015;28;20125;-72
2023/08/13 03:10:39;;;;;;;1999.90;999.90;;;16.40;90.90;;;;;;5088480;28;20016;-72
2023/08/13 03:13:05;;;;;;;1999.90;999.90;;;16.50;90.60;;;;;;5085232;28;20105;-72
2023/08/13 03:15:31;;;;;;;1999.90;999.90;;;16.40;90.90;;;;;;5088518;28;20481;-72
2023/08/13 03:17:57;;;;;;;1999.90;999.90;;;16.30;90.70;;;;;;5085448;28;20379;-71
2023/08/13 03:20:22;;;;;;;1999.90;999.90;;;16.30;90.80;;;;;;5086805;28;20393;-72
2023/08/13 03:22:48;;;;;;;1999.90;999.90;;;16.30;90.70;;;;;;5087153;28;20028;-72
2023/08/13 03:25:14;;;;;;;1999.90;999.90;;;16.30;90.70;;;;;;5086336;28;20036;-72
2023/08/13 03:27:41;;;;;;;1999.90;999.90;;;16.30;90.50;;;;;;5091200;28;20048;-72
2023/08/13 03:30:07;;;;;;;1999.90;999.90;;;16.50;90.70;;;;;;5084595;28;20050;-72
2023/08/13 03:32:33;;;;;;;1999.90;999.90;;;16.50;90.50;;;;;;5086564;28;20058;-72
2023/08/13 03:34:58;;;;;;;1999.90;999.90;;;16.50;90.50;;;;;;5083759;28;20024;-72
2023/08/13 03:37:24;;;;;;;1999.90;999.90;;;16.40;90.40;;;;;;5087766;28;20084;-72
2023/08/13 03:39:50;;;;;;;1999.90;999.90;;;16.40;90.50;;;;;;5086194;28;20474;-72
2023/08/13 03:42:15;;;;;;;1999.90;999.90;;;16.40;90.50;;;;;;5086651;28;20036;-72
2023/08/13 03:44:41;;;;;;;1999.90;999.90;;;16.40;90.20;;;;;;5085126;28;20089;-72
2023/08/13 03:47:07;;;;;;;1999.90;999.90;;;16.30;89.90;;;;;;5086653;28;20024;-72
2023/08/13 03:49:33;;;;;;;1999.90;999.90;;;16.30;89.90;;;;;;5085716;28;20040;-72
2023/08/13 03:51:59;;;;;;;1999.90;999.90;;;16.30;89.30;;;;;;5088438;28;20482;-72
2023/08/13 03:54:25;;;;;;;1999.90;999.90;;;16.10;89.00;;;;;;5090888;28;20054;-72
2023/08/13 03:56:50;;;;;;;1999.90;999.90;;;16.20;89.80;;;;;;5090495;28;20063;-72
2023/08/13 03:59:16;;;;;;;1999.90;999.90;;;16.20;89.70;;;;;;5090342;28;20652;-71
2023/08/13 04:01:42;;;;;;;1999.90;999.90;;;16.20;89.40;;;;;;5085634;28;20480;-72
2023/08/13 04:04:08;;;;;;;1999.90;999.90;;;16.20;89.20;;;;;;5090099;28;20028;-72
2023/08/13 04:06:33;;;;;;;1999.90;999.90;;;16.10;89.20;;;;;;5090742;28;20401;-72
2023/08/13 04:08:59;;;;;;;1999.90;999.90;;;16.10;89.10;;;;;;5084841;28;20024;-72
2023/08/13 04:11:25;;;;;;;1999.90;999.90;;;16.10;89.10;;;;;;5090676;28;20136;-71
2023/08/13 04:13:50;;;;;;;1999.90;999.90;;;16.10;89.60;;;;;;5089285;28;20085;-72
2023/08/13 04:16:16;;;;;;;1999.90;999.90;;;16.20;90.20;;;;;;5089521;28;20028;-72
2023/08/13 04:18:42;;;;;;;1999.90;999.90;;;16.40;89.50;;;;;;5090926;28;20164;-72
2023/08/13 04:21:08;;;;;;;1999.90;999.90;;;16.40;89.60;;;;;;5088183;28;20029;-72
2023/08/13 04:23:33;;;;;;;1999.90;999.90;;;16.50;90.00;;;;;;5089858;28;20090;-72
2023/08/13 04:25:59;;;;;;;1999.90;999.90;;;16.50;90.50;;;;;;5087651;28;20479;-72
2023/08/13 04:28:25;;;;;;;1999.90;999.90;;;16.50;90.50;;;;;;5090980;28;20063;-71
2023/08/13 04:30:50;;;;;;;1999.90;999.90;;;16.70;90.50;;;;;;5090056;28;20032;-72
2023/08/13 04:33:16;;;;;;;1999.90;999.90;;;16.80;90.40;;;;;;5090704;28;20033;-72
2023/08/13 04:35:42;;;;;;;1999.90;999.90;;;16.80;90.30;;;;;;5087608;28;20077;-72
2023/08/13 04:38:08;;;;;;;1999.90;999.90;;;16.90;90.60;;;;;;5090440;28;20401;-72
2023/08/13 04:40:34;;;;;;;1999.90;999.90;;;16.90;90.30;;;;;;5089826;28;20074;-72
2023/08/13 04:43:00;;;;;;;1999.90;999.90;;;17.00;90.80;;;;;;5084722;28;20028;-72
2023/08/13 04:45:25;;;;;;;1999.90;999.90;;;17.00;91.00;;;;;;5085937;28;20085;-72
2023/08/13 04:47:51;;;;;;;1999.90;999.90;;;17.00;91.10;;;;;;5090103;28;20036;-72
2023/08/13 04:50:17;;;;;;;1999.90;999.90;;;17.00;91.00;;;;;;5092045;28;20028;-72
2023/08/13 04:52:43;;;;;;;1999.90;999.90;;;17.10;90.90;;;;;;5090439;28;20513;-72
2023/08/13 04:55:09;;;;;;;1999.90;999.90;;;17.30;90.60;;;;;;5085393;28;20039;-72
2023/08/13 04:57:35;;;;;;;1999.90;999.90;;;17.40;90.60;;;;;;5090314;28;20389;-72
2023/08/13 05:00:01;;;;;;;1999.90;999.90;;;17.30;90.40;;;;;;5082551;28;20040;-72
2023/08/13 05:02:26;;;;;;;1999.90;999.90;;;17.40;90.20;;;;;;5090431;28;20393;-72
2023/08/13 05:04:53;;;;;;;1999.90;999.90;;;17.20;90.40;;;;;;5082614;28;20040;-72
2023/08/13 05:07:19;;;;;;;1999.90;999.90;;;17.30;90.50;;;;;;5087540;28;20040;-71
2023/08/13 05:09:45;;;;;;;1999.90;999.90;;;17.40;90.50;;;;;;5086785;28;20020;-72
2023/08/13 05:12:10;;;;;;;1999.90;999.90;;;17.50;90.60;;;;;;5089074;28;20486;-71
2023/08/13 05:14:36;;;;;;;1999.90;999.90;;;17.60;90.40;;;;;;5086609;28;20028;-71
2023/08/13 05:17:02;;;;;;;1999.90;999.90;;;17.60;90.50;;;;;;5083128;28;20583;-71
2023/08/13 05:19:28;;;;;;;1999.90;999.90;;;17.60;90.50;;;;;;5083675;28;20036;-71
2023/08/13 05:21:54;;;;;;;1999.90;999.90;;;17.70;90.50;;;;;;5086022;28;20032;-72
2023/08/13 05:24:19;;;;;;;1999.90;999.90;;;17.70;90.50;;;;;;5086206;28;20135;-71
2023/08/13 05:26:45;;;;;;;1999.90;999.90;;;17.70;90.70;;;;;;5086934;28;20391;-71
2023/08/13 05:29:11;;;;;;;1999.90;999.90;;;17.80;90.80;;;;;;5083009;28;20067;-71
2023/08/13 05:31:36;;;;;;;1999.90;999.90;;;18.00;90.50;;;;;;5088490;28;20056;-71
2023/08/13 05:34:02;;;;;;;1999.90;999.90;;;18.10;90.50;;;;;;5087921;28;20039;-71
2023/08/13 05:36:28;;;;;;;1999.90;999.90;;;18.10;90.60;;;;;;5084811;28;20024;-71
2023/08/13 05:38:53;;;;;;;1999.90;999.90;;;18.10;90.70;;;;;;5085360;28;20039;-71
2023/08/13 05:41:19;;;;;;;1999.90;999.90;;;18.30;90.60;;;;;;5086091;28;20028;-72
2023/08/13 05:43:45;;;;;;;1999.90;999.90;;;18.50;90.50;;;;;;5086409;28;20028;-73
2023/08/13 05:46:10;;;;;;;1999.90;999.90;;;18.60;89.90;;;;;;5086308;28;20044;-71
2023/08/13 05:48:36;;;;;;;1999.90;999.90;;;18.80;89.70;;;;;;5086755;28;20046;-71
2023/08/13 05:51:02;;;;;;;1999.90;999.90;;;19.00;89.30;;;;;;5085101;28;20036;-71
2023/08/13 05:53:27;;;;;;;1999.90;999.90;;;19.10;88.60;;;;;;5085989;28;20050;-71
2023/08/13 05:55:53;;;;;;;1999.90;999.90;;;19.10;88.60;;;;;;5083695;28;20549;-71
2023/08/13 05:58:19;;;;;;;1999.90;999.90;;;19.30;88.00;;;;;;5085018;28;20115;-71
2023/08/13 06:00:45;;;;;;;1999.90;999.90;;;19.30;88.60;;;;;;5082864;28;20157;-71
2023/08/13 06:03:10;;;;;;;1999.90;999.90;;;19.40;87.10;;;;;;5085709;28;20094;-71
2023/08/13 06:05:38;;;;;;;1999.90;999.90;;;19.30;86.90;;;;;;5082754;28;20123;-72
2023/08/13 06:08:04;;;;;;;1999.90;999.90;;;19.40;87.30;;;;;;5083612;28;20036;-71
2023/08/13 06:10:30;;;;;;;1999.90;999.90;;;19.50;87.00;;;;;;5084438;28;20024;-72
2023/08/13 06:12:56;;;;;;;1999.90;999.90;;;19.60;86.70;;;;;;5081711;28;20029;-71
2023/08/13 06:15:23;;;;;;;1999.90;999.90;;;19.70;86.00;;;;;;5079811;28;20038;-72
2023/08/13 06:17:49;;;;;;;1999.90;999.90;;;19.80;85.50;;;;;;5078117;28;20044;-71
2023/08/13 06:20:15;;;;;;;1999.90;999.90;;;20.00;83.80;;;;;;5085089;28;20025;-71
2023/08/13 06:22:41;;;;;;;1999.90;999.90;;;20.00;84.00;;;;;;5088170;28;20058;-71
2023/08/13 06:25:07;;;;;;;1999.90;999.90;;;20.40;83.50;;;;;;5085569;28;20034;-71
2023/08/13 06:27:32;;;;;;;1999.90;999.90;;;20.40;82.10;;;;;;5084246;28;20135;-72
2023/08/13 06:29:58;;;;;;;1999.90;999.90;;;20.40;82.40;;;;;;5084057;28;20028;-72
2023/08/13 06:32:24;;;;;;;1999.90;999.90;;;20.20;82.60;;;;;;5085778;28;20081;-72
2023/08/13 06:34:50;;;;;;;1999.90;999.90;;;20.10;83.50;;;;;;5081534;28;20036;-71
2023/08/13 06:37:15;;;;;;;1999.90;999.90;;;20.10;84.20;;;;;;5083037;28;20123;-71
2023/08/13 06:39:41;;;;;;;1999.90;999.90;;;20.10;84.10;;;;;;5084039;28;20051;-71
2023/08/13 06:42:07;;;;;;;1999.90;999.90;;;20.40;84.50;;;;;;5085064;28;20122;-71
2023/08/13 06:44:32;;;;;;;1999.90;999.90;;;20.50;83.40;;;;;;5083433;28;20100;-71
2023/08/13 06:46:58;;;;;;;1999.90;999.90;;;20.60;83.20;;;;;;5087955;28;20089;-71
2023/08/13 06:49:24;;;;;;;1999.90;999.90;;;20.60;82.60;;;;;;5084356;28;20047;-72
2023/08/13 06:51:49;;;;;;;1999.90;999.90;;;20.60;81.90;;;;;;5083865;28;20032;-71
2023/08/13 06:54:15;;;;;;;1999.90;999.90;;;20.60;82.70;;;;;;5084478;28;20036;-71
2023/08/13 06:56:41;;;;;;;1999.90;999.90;;;20.80;82.40;;;;;;5082216;28;20047;-71
2023/08/13 06:59:07;;;;;;;1999.90;999.90;;;20.70;82.40;;;;;;5086390;28;20028;-71
2023/08/13 07:01:32;;;;;;;1999.90;999.90;;;20.70;82.50;;;;;;5084503;28;20031;-70
2023/08/13 07:03:58;;;;;;;1999.90;999.90;;;21.10;82.00;;;;;;5083730;28;20107;-71
2023/08/13 07:06:25;;;;;;;1999.90;999.90;;;21.10;81.10;;;;;;5084416;28;20036;-71
2023/08/13 07:08:51;;;;;;;1999.90;999.90;;;21.60;80.10;;;;;;5081043;28;20028;-71
2023/08/13 07:11:16;;;;;;;1999.90;999.90;;;21.80;79.30;;;;;;5084096;28;20032;-71
2023/08/13 07:13:42;;;;;;;1999.90;999.90;;;21.90;78.90;;;;;;5084102;28;20054;-72
2023/08/13 07:16:13;;;;;;;1999.90;999.90;;;21.50;79.40;;;;;;5085610;28;20040;-72
2023/08/13 07:18:39;;;;;;;1999.90;999.90;;;21.70;78.20;;;;;;5085714;28;20032;-73
2023/08/13 07:21:06;;;;;;;1999.90;999.90;;;21.30;80.00;;;;;;5082088;28;20032;-73
2023/08/13 07:23:32;;;;;;;1999.90;999.90;;;21.30;79.60;;;;;;5085673;28;20060;-72
2023/08/13 07:25:58;;;;;;;1999.90;999.90;;;21.50;79.60;;;;;;5079871;28;20537;-72
2023/08/13 07:28:23;;;;;;;1999.90;999.90;;;21.90;79.40;;;;;;5086224;28;20127;-72
2023/08/13 07:30:49;;;;;;;1999.90;999.90;;;22.50;77.70;;;;;;5070594;28;20040;-72
2023/08/13 07:33:15;;;;;;;1999.90;999.90;;;23.00;75.50;;;;;;5091763;28;20028;-72
2023/08/13 07:35:41;;;;;;;1999.90;999.90;;;22.70;75.00;;;;;;5091463;28;20055;-73
2023/08/13 07:38:08;;;;;;;1999.90;999.90;;;22.70;74.20;;;;;;5089994;28;20035;-78
2023/08/13 07:40:34;;;;;;;1999.90;999.90;;;22.90;74.30;;;;;;5088329;28;20036;-75
2023/08/13 07:43:00;;;;;;;1999.90;999.90;;;23.00;74.90;;;;;;5087656;28;20130;-75
2023/08/13 07:45:29;;;;;;;1999.90;999.90;;;23.20;73.50;;;;;;5086888;28;20028;-76
2023/08/13 07:47:56;;;;;;;1999.90;999.90;;;23.00;73.40;;;;;;5089778;28;20024;-76
2023/08/13 07:50:22;;;;;;;1999.90;999.90;;;22.70;73.40;;;;;;5088689;28;20032;-75
2023/08/13 07:52:50;;;;;;;1999.90;999.90;;;22.40;75.80;;;;;;5090809;28;20070;-76
2023/08/13 07:55:15;;;;;;;1999.90;999.90;;;22.20;77.30;;;;;;5088428;28;20126;-75
2023/08/13 07:57:41;;;;;;;1999.90;999.90;;;22.50;75.50;;;;;;5086942;28;20739;-76
2023/08/13 08:00:08;;;;;;;1999.90;999.90;;;22.70;74.60;;;;;;5089461;28;20028;-76
2023/08/13 08:02:34;;;;;;;1999.90;999.90;;;22.90;75.50;;;;;;5087309;28;20034;-75
2023/08/13 08:05:00;;;;;;;1999.90;999.90;;;23.20;76.00;;;;;;5088192;28;20036;-75
2023/08/13 08:07:27;;;;;;;1999.90;999.90;;;23.30;73.80;;;;;;5069946;28;20036;-75
2023/08/13 08:09:52;;;;;;;1999.90;999.90;;;23.40;74.20;;;;;;5086764;28;20134;-75
2023/08/13 08:12:18;;;;;;;1999.90;999.90;;;23.00;73.40;;;;;;5087216;28;20137;-75
2023/08/13 08:14:44;;;;;;;1999.90;999.90;;;23.30;72.60;;;;;;5089464;28;20036;-75
2023/08/13 08:17:09;;;;;;;1999.90;999.90;;;23.40;71.10;;;;;;5086177;28;20515;-76
2023/08/13 08:19:35;;;;;;;1999.90;999.90;;;23.60;72.20;;;;;;5086790;28;20039;-76
2023/08/13 08:22:02;;;;;;;1999.90;999.90;;;23.70;71.40;;;;;;5088537;28;20103;-76
2023/08/13 08:24:27;;;;;;;1999.90;999.90;;;23.90;69.80;;;;;;5088197;28;20474;-76
2023/08/13 08:26:53;;;;;;;1999.90;999.90;;;24.00;71.10;;;;;;5089729;28;20059;-76
2023/08/13 08:29:19;;;;;;;1999.90;999.90;;;24.10;73.00;;;;;;5084245;28;20482;-76
2023/08/13 08:31:45;;;;;;;1999.90;999.90;;;24.20;71.50;;;;;;5088813;28;20078;-76
2023/08/13 08:34:10;;;;;;;1999.90;999.90;;;24.40;70.90;;;;;;5087507;28;20028;-77
2023/08/13 08:36:36;;;;;;;1999.90;999.90;;;24.50;68.40;;;;;;5085340;28;20538;-77
2023/08/13 08:39:03;;;;;;;1999.90;999.90;;;24.40;67.90;;;;;;5086078;28;20024;-77
2023/08/13 08:41:31;;;;;;;1999.90;999.90;;;24.50;69.60;;;;;;5085067;28;20036;-75
2023/08/13 08:43:58;;;;;;;1999.90;999.90;;;24.50;68.10;;;;;;5086584;28;20024;-76
2023/08/13 08:46:27;;;;;;;1999.90;999.90;;;24.60;67.80;;;;;;5086141;28;20051;-76
2023/08/13 08:48:53;;;;;;;1999.90;999.90;;;24.90;68.30;;;;;;5087911;28;20043;-76
2023/08/13 08:51:21;;;;;;;1999.90;999.90;;;25.00;68.40;;;;;;5086958;28;20024;-76
2023/08/13 08:53:49;;;;;;;1999.90;999.90;;;25.00;66.90;;;;;;5082863;28;20024;-75
2023/08/13 08:56:15;;;;;;;1999.90;999.90;;;25.20;66.80;;;;;;5082657;28;20393;-75
2023/08/13 08:58:41;;;;;;;1999.90;999.90;;;25.40;66.10;;;;;;5080845;28;20027;-75
2023/08/13 09:01:07;;;;;;;1999.90;999.90;;;25.50;64.00;;;;;;5084686;28;20040;-75
2023/08/13 09:03:32;;;;;;;1999.90;999.90;;;25.40;63.90;;;;;;5085434;28;20149;-75
2023/08/13 09:05:58;;;;;;;1999.90;999.90;;;25.30;63.70;;;;;;5087591;28;20036;-75
2023/08/13 09:08:25;;;;;;;1999.90;999.90;;;25.30;64.00;;;;;;5088075;28;20118;-75
2023/08/13 09:10:50;;;;;;;1999.90;999.90;;;25.20;65.30;;;;;;5088196;28;20024;-75
2023/08/13 09:13:16;;;;;;;1999.90;999.90;;;25.30;65.20;;;;;;5087726;28;20024;-74
2023/08/13 09:15:48;;;;;;;1999.90;999.90;;;25.80;64.10;;;;;;5087369;28;20115;-75
2023/08/13 09:18:14;;;;;;;1999.90;999.90;;;26.30;60.80;;;;;;5087423;28;20115;-74
2023/08/13 09:20:44;;;;;;;1999.90;999.90;;;26.40;62.90;;;;;;5088330;28;20545;-75
2023/08/13 09:23:10;;;;;;;1999.90;999.90;;;26.10;60.50;;;;;;5085422;28;20024;-75
2023/08/13 09:25:37;;;;;;;1999.90;999.90;;;26.30;58.50;;;;;;5080673;28;20512;-76
2023/08/13 09:28:03;;;;;;;1999.90;999.90;;;26.40;58.20;;;;;;5088587;28;20072;-76
2023/08/13 09:30:31;;;;;;;1999.90;999.90;;;26.70;62.60;;;;;;5084883;28;20067;-75
2023/08/13 09:32:59;;;;;;;1999.90;999.90;;;26.90;61.70;;;;;;5081287;28;20052;-75
2023/08/13 09:35:28;;;;;;;1999.90;999.90;;;27.10;58.90;;;;;;5081641;28;20021;-75
2023/08/13 09:37:54;;;;;;;1999.90;999.90;;;27.30;59.10;;;;;;5085319;28;20035;-75
2023/08/13 09:40:19;;;;;;;1999.90;999.90;;;27.30;57.90;;;;;;5085320;28;20032;-74
2023/08/13 09:42:46;;;;;;;1999.90;999.90;;;27.60;56.50;;;;;;5084905;28;20036;-75
2023/08/13 09:45:16;;;;;;;1999.90;999.90;;;27.50;55.20;;;;;;5080719;28;20071;-74
2023/08/13 09:47:45;;;;;;;1999.90;999.90;;;27.40;57.30;;;;;;5084991;28;20063;-74
2023/08/13 09:50:12;;;;;;;1999.90;999.90;;;28.00;55.50;;;;;;5080821;28;20156;-74
2023/08/13 09:52:42;;;;;;;1999.90;999.90;;;27.50;55.70;;;;;;5081902;28;20136;-74
2023/08/13 09:55:13;;;;;;;1999.90;999.90;;;27.60;57.10;;;;;;5086412;28;20036;-74
2023/08/13 09:57:43;;;;;;;1999.90;999.90;;;27.80;59.50;;;;;;5085292;28;20044;-74
2023/08/13 10:00:09;;;;;;;;;;;28.10;55.30;;;;;;5086264;28;20191;-73
2023/08/13 10:02:35;;;;;;;1999.90;999.90;;;28.00;58.00;;;;;;5088289;28;19919;-74
2023/08/13 10:05:03;;;;;;;1999.90;999.90;;;28.10;55.10;;;;;;5088020;28;20398;-74
2023/08/13 10:07:28;;;;;;;1999.90;999.90;;;28.00;54.70;;;;;;5084769;28;20109;-71
2023/08/13 10:09:55;;;;;;;1999.90;999.90;;;27.60;56.00;;;;;;5088161;28;20020;-70
2023/08/13 10:12:22;;;;;;;1999.90;999.90;;;27.50;57.70;;;;;;5084390;28;20106;-71
2023/08/13 10:14:48;;;;;;;1999.90;999.90;;;27.90;54.60;;;;;;5082485;28;20074;-70
2023/08/13 10:17:18;;;;;;;1999.90;999.90;;;27.80;57.20;;;;;;5085892;28;20039;-70
2023/08/13 10:19:48;;;;;;;1999.90;999.90;;;28.00;53.90;;;;;;5086958;28;20032;-70
2023/08/13 10:22:14;;;;;;;1999.90;999.90;;;28.50;53.30;;;;;;5077068;28;20278;-70
2023/08/13 10:24:42;;;;;;;1999.90;999.90;;;29.00;55.00;;;;;;5088049;28;20466;-71
2023/08/13 10:27:11;;;;;;;1999.90;999.90;;;28.50;54.30;;;;;;5087498;28;20043;-70
2023/08/13 10:29:41;;;;;;;1999.90;999.90;;;28.40;53.40;;;;;;5085120;28;20042;-70
2023/08/13 10:32:15;;;;;;;1999.90;999.90;;;28.40;56.00;;;;;;5084980;28;20134;-70
2023/08/13 10:34:40;;;;;;;1999.90;999.90;;;28.60;53.00;;;;;;5080807;28;20029;-69
2023/08/13 10:37:15;;;;;;;1999.90;999.90;;;28.60;55.40;;;;;;5088270;28;20047;-71
2023/08/13 10:39:41;;;;;;;1999.90;999.90;;;29.00;55.20;;;;;;5094303;28;20044;-69
2023/08/13 10:42:26;;;;;;;1999.90;999.90;;;28.80;52.40;;;;;;5087259;28;20081;-70
2023/08/13 10:44:52;;;;;;;1999.90;999.90;;;29.30;51.70;;;;;;5086725;28;20056;-70
2023/08/13 10:47:18;;;;;;;1999.90;999.90;;;29.40;53.20;;;;;;5081456;28;20036;-70
2023/08/13 10:49:43;;;;;;;1999.90;999.90;;;29.60;51.20;;;;;;5086183;28;20040;-70
2023/08/13 10:52:09;;;;;;;1999.90;999.90;;;29.80;51.60;;;;;;5087483;28;20061;-70
2023/08/13 10:54:35;;;;;;;1999.90;999.90;;;30.40;50.00;;;;;;5085459;28;20024;-70
2023/08/13 10:57:01;;;;;;;1999.90;999.90;;;30.40;46.60;;;;;;5087048;28;20024;-70
2023/08/13 10:59:37;;;;;;;1999.90;999.90;;;30.00;47.40;;;;;;5085667;28;20084;-76
2023/08/13 11:02:16;;;;;;;1999.90;999.90;;;30.90;49.90;;;;;;5086206;28;20115;-74
2023/08/13 11:04:44;;;;;;;1999.90;999.90;;;30.90;46.90;;;;;;5090497;28;20044;-71
2023/08/13 11:07:10;;;;;;;1999.90;999.90;;;30.90;45.70;;;;;;5089943;28;20032;-71
2023/08/13 11:09:37;;;;;;;1999.90;999.90;;;31.20;47.70;;;;;;5084168;28;20545;-74
2023/08/13 11:12:07;;;;;;;1999.90;999.90;;;31.20;44.00;;;;;;5087643;28;20064;-74
2023/08/13 11:14:34;;;;;;;1999.90;999.90;;;31.70;44.40;;;;;;5091586;28;20122;-75
2023/08/13 11:17:00;;;;;;;1999.90;999.90;;;32.10;43.20;;;;;;5083517;28;20020;-76
2023/08/13 11:19:25;;;;;;;1999.90;999.90;;;32.40;43.80;;;;;;5088997;28;20077;-77
2023/08/13 11:21:51;;;;;;;1999.90;999.90;;;32.10;43.20;;;;;;5092007;28;20035;-79
2023/08/13 11:24:19;;;;;;;1999.90;999.90;;;32.30;43.30;;;;;;5090627;28;20028;-74
2023/08/13 11:26:46;;;;;;;1999.90;999.90;;;33.10;39.30;;;;;;5094323;28;20059;-74
2023/08/13 11:29:12;;;;;;;1999.90;999.90;;;33.30;37.90;;;;;;5092948;28;20132;-74
2023/08/13 11:31:46;;;;;;;1999.90;999.90;;;33.90;38.40;;;;;;5089984;28;20686;-74
2023/08/13 11:34:12;;;;;;;1999.90;999.90;;;33.70;36.40;;;;;;5087740;28;20084;-73
2023/08/13 11:36:38;;;;;;;1999.90;999.90;;;33.80;38.20;;;;;;5088270;28;20588;-74
2023/08/13 11:39:03;;;;;;;1999.90;999.90;;;34.40;36.70;;;;;;5086037;28;20340;-74
2023/08/13 11:41:29;;;;;;;1999.90;999.90;;;33.90;38.70;;;;;;5090094;28;20040;-74
2023/08/13 11:43:55;;;;;;;1999.90;999.90;;;33.70;38.40;;;;;;5090081;28;20443;-74
2023/08/13 11:46:22;;;;;;;1999.90;999.90;;;34.20;37.50;;;;;;5087422;28;20144;-74
2023/08/13 11:48:53;;;;;;;1999.90;999.90;;;34.70;37.80;;;;;;5090892;28;20176;-74
2023/08/13 11:51:22;;;;;;;1999.90;999.90;;;34.70;36.10;;;;;;5092670;28;20084;-73
2023/08/13 11:53:49;;;;;;;1999.90;999.90;;;34.00;38.10;;;;;;5100151;28;20097;-74
2023/08/13 11:56:15;;;;;;;1999.90;999.90;;;32.90;37.20;;;;;;5088117;28;20024;-74